createdAt,value
2022-08-07T00:01:44.419Z,0.68
2022-08-07T00:04:03.784Z,0.57
2022-08-07T00:06:33.432Z,0.85
2022-08-07T00:09:16.235Z,0.47
2022-08-07T00:11:54.476Z,0.50
2022-08-07T00:14:25.186Z,0.50
2022-08-07T00:16:52.549Z,0.50
2022-08-07T00:19:21.491Z,0.60
2022-08-07T00:21:56.779Z,0.50
2022-08-07T00:24:24.447Z,0.50
2022-08-07T00:27:06.102Z,0.50
2022-08-07T00:29:37.128Z,0.40
2022-08-07T00:32:05.828Z,0.45
2022-08-07T00:34:33.489Z,0.50
2022-08-07T00:37:02.598Z,0.50
2022-08-07T00:39:31.943Z,0.47
2022-08-07T00:42:04.778Z,0.30
2022-08-07T00:44:32.986Z,0.50
2022-08-07T00:47:00.187Z,0.40
2022-08-07T00:50:20.737Z,0.40
2022-08-07T00:52:13.468Z,0.50
2022-08-07T00:54:44.481Z,0.60
2022-08-07T00:57:12.697Z,0.57
2022-08-07T00:59:39.469Z,0.68
2022-08-07T01:02:14.171Z,0.60
2022-08-07T01:04:54.602Z,0.52
2022-08-07T01:07:25.821Z,0.40
2022-08-07T01:10:05.754Z,0.60
2022-08-07T01:12:43.933Z,0.32
2022-08-07T01:15:21.679Z,0.50
2022-08-07T01:17:48.742Z,0.45
2022-08-07T01:20:16.554Z,0.40
2022-08-07T01:22:54.095Z,0.70
2022-08-07T01:25:54.727Z,0.55
2022-08-07T01:28:14.990Z,0.60
2022-08-07T01:30:42.323Z,0.40
2022-08-07T01:33:09.139Z,0.40
2022-08-07T01:35:52.695Z,0.50
2022-08-07T01:38:29.060Z,0.40
2022-08-07T01:40:59.039Z,0.40
2022-08-07T01:43:26.749Z,0.40
2022-08-07T01:46:02.670Z,0.40
2022-08-07T01:48:30.370Z,0.50
2022-08-07T01:51:24.588Z,0.50
2022-08-07T01:54:09.494Z,0.43
2022-08-07T01:56:46.398Z,0.45
2022-08-07T01:59:22.338Z,0.40
2022-08-07T02:01:59.942Z,0.55
2022-08-07T02:04:35.649Z,0.43
2022-08-07T02:07:03.796Z,0.50
2022-08-07T02:09:51.918Z,0.50
2022-08-07T02:12:29.068Z,0.70
2022-08-07T02:15:00.566Z,0.40
2022-08-07T02:17:34.169Z,0.50
2022-08-07T02:20:09.355Z,0.57
2022-08-07T02:22:41.403Z,0.47
2022-08-07T02:25:17.514Z,0.70
2022-08-07T02:27:51.926Z,0.60
2022-08-07T02:30:19.317Z,0.50
2022-08-07T02:33:00.743Z,0.53
2022-08-07T02:36:28.987Z,0.40
2022-08-07T02:38:31.822Z,0.50
2022-08-07T02:41:00.869Z,0.50
2022-08-07T02:43:31.191Z,0.40
2022-08-07T02:46:01.864Z,0.40
2022-08-07T02:48:29.279Z,0.50
2022-08-07T02:50:57.218Z,0.57
2022-08-07T02:53:27.769Z,0.50
2022-08-07T02:56:03.537Z,0.50
2022-08-07T02:58:34.905Z,0.50
2022-08-07T03:01:03.773Z,0.40
2022-08-07T03:03:49.489Z,0.45
2022-08-07T03:06:25.987Z,0.47
2022-08-07T03:08:59.743Z,0.50
2022-08-07T03:11:28.230Z,0.57
2022-08-07T03:13:57.685Z,0.50
2022-08-07T03:16:28.962Z,0.57
2022-08-07T03:18:57.724Z,0.30
2022-08-07T03:21:25.064Z,0.40
2022-08-07T03:24:19.528Z,0.60
2022-08-07T03:26:50.881Z,0.57
2022-08-07T03:29:28.084Z,0.43
2022-08-07T03:31:56.171Z,0.52
2022-08-07T03:34:27.395Z,0.50
2022-08-07T03:36:57.426Z,0.50
2022-08-07T03:39:46.225Z,0.50
2022-08-07T03:42:14.046Z,0.40
2022-08-07T03:44:42.765Z,0.40
2022-08-07T03:47:15.300Z,0.60
2022-08-07T03:49:47.732Z,0.40
2022-08-07T03:52:22.790Z,0.40
2022-08-07T03:54:57.364Z,0.50
2022-08-07T03:59:09.711Z,0.50
2022-08-07T04:00:33.468Z,0.30
2022-08-07T04:03:03.812Z,0.40
2022-08-07T04:05:41.172Z,0.40
2022-08-07T04:08:11.473Z,0.50
2022-08-07T04:10:39.043Z,0.40
2022-08-07T04:13:15.076Z,0.40
2022-08-07T04:15:45.516Z,0.50
2022-08-07T04:18:56.327Z,0.50
2022-08-07T04:21:00.534Z,0.60
2022-08-07T04:23:43.521Z,0.70
2022-08-07T04:26:16.776Z,1.02
2022-08-07T04:28:48.355Z,0.47
2022-08-07T04:31:20.114Z,0.60
2022-08-07T04:34:04.351Z,0.50
2022-08-07T04:36:43.827Z,0.35
2022-08-07T04:39:12.226Z,0.40
2022-08-07T04:41:39.060Z,0.90
2022-08-07T04:44:11.920Z,0.40
2022-08-07T04:47:04.195Z,0.30
2022-08-07T04:49:58.001Z,0.47
2022-08-07T04:52:36.643Z,0.50
2022-08-07T04:55:14.931Z,0.40
2022-08-07T04:58:15.617Z,0.40
2022-08-07T05:00:55.402Z,0.40
2022-08-07T05:03:59.957Z,0.47
2022-08-07T05:06:20.401Z,0.50
2022-08-07T05:09:01.458Z,0.40
2022-08-07T05:11:57.243Z,0.40
2022-08-07T05:14:52.168Z,0.52
2022-08-07T05:17:17.467Z,0.50
2022-08-07T05:20:09.450Z,0.60
2022-08-07T05:22:39.139Z,0.70
2022-08-07T05:25:08.663Z,0.90
2022-08-07T05:28:05.977Z,1.13
2022-08-07T05:30:32.761Z,0.82
2022-08-07T05:33:02.624Z,0.70
2022-08-07T05:35:33.327Z,0.80
2022-08-07T05:38:10.286Z,0.88
2022-08-07T05:40:42.803Z,0.70
2022-08-07T05:43:19.227Z,0.63
2022-08-07T05:46:06.291Z,0.80
2022-08-07T05:48:33.974Z,0.80
2022-08-07T05:51:03.481Z,0.80
2022-08-07T05:54:12.901Z,0.50
2022-08-07T05:56:29.912Z,0.80
2022-08-07T05:58:58.327Z,0.88
2022-08-07T06:01:27.417Z,0.83
2022-08-07T06:04:04.285Z,0.85
2022-08-07T06:06:34.424Z,0.80
2022-08-07T06:09:04.711Z,0.90
2022-08-07T06:11:32.991Z,0.85
2022-08-07T06:14:12.583Z,0.90
2022-08-07T06:16:50.144Z,0.90
2022-08-07T06:19:18.256Z,0.70
2022-08-07T06:22:16.273Z,0.90
2022-08-07T06:24:56.903Z,1.00
2022-08-07T06:28:00.750Z,1.00
2022-08-07T06:30:31.783Z,1.02
2022-08-07T06:33:00.765Z,0.80
2022-08-07T06:35:45.725Z,0.90
2022-08-07T06:38:28.511Z,1.00
2022-08-07T06:41:00.711Z,0.97
2022-08-07T06:43:39.633Z,0.52
2022-08-07T06:46:11.432Z,0.70
2022-08-07T06:48:38.880Z,0.70
2022-08-07T06:51:13.044Z,0.80
2022-08-07T06:55:27.987Z,0.90
2022-08-07T06:56:33.297Z,0.65
2022-08-07T07:00:13.715Z,0.70
2022-08-07T07:01:50.962Z,1.15
2022-08-07T07:04:28.545Z,1.13
2022-08-07T07:07:01.836Z,0.80
2022-08-07T07:09:31.791Z,0.70
2022-08-07T07:12:14.799Z,0.70
2022-08-07T07:14:51.022Z,0.82
2022-08-07T07:17:24.671Z,0.88
2022-08-07T07:20:12.041Z,1.10
2022-08-07T07:24:09.622Z,0.95
2022-08-07T07:26:34.280Z,0.93
2022-08-07T07:28:42.484Z,1.00
2022-08-07T07:31:12.682Z,1.20
2022-08-07T07:33:54.911Z,1.40
2022-08-07T07:36:25.340Z,1.38
2022-08-07T07:39:02.290Z,1.40
2022-08-07T07:42:02.097Z,1.23
2022-08-07T07:44:21.563Z,1.50
2022-08-07T07:47:12.303Z,1.53
2022-08-07T07:50:36.178Z,1.08
2022-08-07T07:52:37.417Z,1.50
2022-08-07T07:55:09.115Z,1.23
2022-08-07T07:57:50.410Z,1.38
2022-08-07T08:00:31.392Z,1.00
2022-08-07T08:03:06.873Z,1.20
2022-08-07T08:05:54.856Z,1.00
2022-08-07T08:08:34.481Z,1.15
2022-08-07T08:11:05.686Z,1.13
2022-08-07T08:13:52.811Z,0.97
2022-08-07T08:16:26.182Z,1.02
2022-08-07T08:18:58.369Z,1.10
2022-08-07T08:22:00.702Z,0.93
2022-08-07T08:24:34.422Z,1.13
2022-08-07T08:27:09.498Z,0.80
2022-08-07T08:29:54.311Z,0.82
2022-08-07T08:32:25.622Z,1.20
2022-08-07T08:35:08.650Z,0.85
2022-08-07T08:38:00.966Z,1.08
2022-08-07T08:40:30.540Z,0.90
2022-08-07T08:43:03.374Z,0.90
2022-08-07T08:45:58.312Z,1.00
2022-08-07T08:48:36.063Z,0.80
2022-08-07T08:51:14.630Z,0.75
2022-08-07T08:53:57.539Z,0.90
2022-08-07T08:56:32.882Z,0.80
2022-08-07T08:59:12.693Z,1.10
2022-08-07T09:01:49.417Z,1.17
2022-08-07T09:04:30.159Z,0.90
2022-08-07T09:07:03.405Z,1.00
2022-08-07T09:09:57.246Z,1.13
2022-08-07T09:12:37.230Z,1.05
2022-08-07T09:16:22.439Z,1.00
2022-08-07T09:18:26.256Z,0.95
2022-08-07T09:21:13.910Z,0.90
2022-08-07T09:24:34.200Z,1.05
2022-08-07T09:27:04.625Z,0.90
2022-08-07T09:30:06.114Z,1.08
2022-08-07T09:32:50.536Z,1.10
2022-08-07T09:36:04.342Z,1.07
2022-08-07T09:38:31.209Z,0.95
2022-08-07T09:41:07.875Z,0.80
2022-08-07T09:44:06.733Z,1.10
2022-08-07T09:47:50.519Z,1.15
2022-08-07T09:50:00.495Z,1.10
2022-08-07T09:52:39.185Z,1.10
2022-08-07T09:55:28.735Z,1.00
2022-08-07T09:58:20.972Z,1.08
2022-08-07T10:01:14.821Z,1.05
2022-08-07T10:04:39.726Z,1.03
2022-08-07T10:07:52.379Z,1.02
2022-08-07T10:10:30.495Z,1.02
2022-08-07T10:13:55.338Z,0.90
2022-08-07T10:16:22.236Z,1.20
2022-08-07T10:19:27.358Z,1.10
2022-08-07T10:22:16.210Z,0.80
2022-08-07T10:24:54.117Z,1.17
2022-08-07T10:27:47.134Z,0.90
2022-08-07T10:30:17.693Z,0.82
2022-08-07T10:33:13.075Z,0.90
2022-08-07T10:36:05.576Z,0.80
2022-08-07T10:38:51.018Z,0.75
2022-08-07T10:41:53.100Z,0.70
2022-08-07T10:44:38.058Z,0.70
2022-08-07T10:47:16.767Z,0.60
2022-08-07T10:49:51.271Z,0.68
2022-08-07T10:52:31.847Z,0.60
2022-08-07T10:55:32.537Z,0.70
2022-08-07T10:58:09.414Z,0.60
2022-08-07T11:00:50.238Z,0.80
2022-08-07T11:03:23.638Z,0.73
2022-08-07T11:06:02.868Z,0.80
2022-08-07T11:08:40.076Z,0.70
2022-08-07T11:11:11.834Z,0.77
2022-08-07T11:14:46.242Z,0.70
2022-08-07T11:16:36.274Z,0.68
2022-08-07T11:19:09.745Z,0.70
2022-08-07T11:21:45.180Z,0.60
2022-08-07T11:24:18.286Z,0.77
2022-08-07T11:26:51.092Z,0.80
2022-08-07T11:29:42.069Z,0.80
2022-08-07T11:32:26.163Z,0.75
2022-08-07T11:34:57.280Z,0.82
2022-08-07T11:37:58.030Z,0.80
2022-08-07T11:40:41.619Z,0.90
2022-08-07T11:43:41.374Z,0.85
2022-08-07T11:46:28.463Z,0.70
2022-08-07T11:49:51.445Z,0.80
2022-08-07T11:52:35.794Z,0.70
2022-08-07T11:55:13.000Z,0.90
2022-08-07T11:58:00.770Z,0.90
2022-08-07T12:00:35.516Z,0.80
2022-08-07T12:03:45.062Z,0.70
2022-08-07T12:06:39.920Z,0.70
2022-08-07T12:09:23.538Z,0.70
2022-08-07T12:12:10.013Z,0.70
2022-08-07T12:14:44.887Z,0.70
2022-08-07T12:17:34.207Z,0.90
2022-08-07T12:20:14.027Z,0.60
2022-08-07T12:23:14.402Z,0.73
2022-08-07T12:26:05.584Z,0.65
2022-08-07T12:28:45.180Z,0.50
2022-08-07T12:31:23.720Z,0.77
2022-08-07T12:34:01.447Z,0.70
2022-08-07T12:36:33.144Z,0.60
2022-08-07T12:39:41.925Z,0.60
2022-08-07T12:41:52.189Z,0.60
2022-08-07T12:44:20.657Z,0.70
2022-08-07T12:46:59.923Z,0.70
2022-08-07T12:49:48.929Z,0.70
2022-08-07T12:52:33.937Z,0.60
2022-08-07T12:55:09.499Z,0.68
2022-08-07T12:58:16.778Z,0.63
2022-08-07T13:00:51.965Z,0.60
2022-08-07T13:03:54.894Z,0.70
2022-08-07T13:06:36.441Z,0.80
2022-08-07T13:10:19.471Z,0.60
2022-08-07T13:12:31.590Z,0.68
2022-08-07T13:15:08.183Z,0.60
2022-08-07T13:17:49.692Z,0.80
2022-08-07T13:20:27.502Z,0.80
2022-08-07T13:23:59.853Z,0.70
2022-08-07T13:26:00.758Z,0.80
2022-08-07T13:28:37.596Z,0.90
2022-08-07T13:31:13.153Z,0.80
2022-08-07T13:34:30.769Z,0.80
2022-08-07T13:36:42.024Z,0.75
2022-08-07T13:39:28.417Z,0.80
2022-08-07T13:42:21.441Z,0.80
2022-08-07T13:44:55.251Z,0.80
2022-08-07T13:48:07.904Z,0.80
2022-08-07T13:50:32.783Z,0.70
2022-08-07T13:53:03.196Z,0.60
2022-08-07T13:55:30.915Z,0.80
2022-08-07T13:58:06.551Z,0.80
2022-08-07T14:00:54.154Z,0.60
2022-08-07T14:03:29.040Z,0.65
2022-08-07T14:06:11.739Z,0.70
2022-08-07T14:08:43.352Z,0.50
2022-08-07T14:11:14.554Z,0.80
2022-08-07T14:13:50.457Z,0.80
2022-08-07T14:16:19.120Z,0.85
2022-08-07T14:18:57.597Z,0.60
2022-08-07T14:22:41.137Z,0.65
2022-08-07T14:24:22.900Z,0.60
2022-08-07T14:26:52.132Z,0.93
2022-08-07T14:30:07.734Z,0.57
2022-08-07T14:32:12.541Z,0.60
2022-08-07T14:34:45.871Z,0.75
2022-08-07T14:37:16.437Z,0.77
2022-08-07T14:40:16.374Z,0.80
2022-08-07T14:42:34.146Z,0.80
2022-08-07T14:45:20.775Z,0.68
2022-08-07T14:47:58.856Z,0.80
2022-08-07T14:50:27.859Z,0.70
2022-08-07T14:52:55.355Z,1.00
2022-08-07T14:55:27.615Z,0.70
2022-08-07T14:57:59.532Z,0.70
2022-08-07T15:03:52.627Z,0.60
2022-08-07T15:06:33.261Z,0.60
2022-08-07T15:09:57.294Z,0.70
2022-08-07T15:12:05.308Z,0.60
2022-08-07T15:17:54.964Z,0.70
2022-08-07T15:20:34.034Z,0.73
2022-08-07T15:26:20.675Z,0.70
2022-08-07T15:28:58.421Z,0.80
2022-08-07T15:32:01.697Z,0.90
2022-08-07T15:34:17.148Z,0.70
2022-08-07T15:37:03.082Z,0.75
2022-08-07T15:42:51.823Z,0.60
2022-08-07T15:48:23.360Z,0.65
2022-08-07T15:51:15.894Z,0.63
2022-08-07T15:53:52.897Z,0.85
2022-08-07T15:56:24.073Z,0.80
2022-08-07T15:58:53.112Z,1.10
2022-08-07T16:01:23.628Z,0.77
2022-08-07T16:04:14.645Z,0.75
2022-08-07T16:06:49.147Z,0.80
2022-08-07T16:09:23.028Z,0.75
2022-08-07T16:12:03.175Z,1.10
2022-08-07T16:15:05.758Z,0.90
2022-08-07T16:18:01.840Z,0.70
2022-08-07T16:20:42.237Z,0.85
2022-08-07T16:23:54.186Z,0.70
2022-08-07T16:26:14.324Z,0.77
2022-08-07T16:29:18.540Z,0.82
2022-08-07T16:31:58.632Z,0.60
2022-08-07T16:34:38.197Z,0.90
2022-08-07T16:38:04.117Z,0.80
2022-08-07T16:41:01.826Z,0.70
2022-08-07T16:44:03.997Z,0.77
2022-08-07T16:47:17.891Z,0.80
2022-08-07T16:50:41.613Z,0.50
2022-08-07T16:54:06.869Z,0.90
2022-08-07T16:56:53.470Z,0.90
2022-08-07T16:59:46.097Z,0.80
2022-08-07T17:02:52.400Z,0.90
2022-08-07T17:06:19.412Z,0.82
2022-08-07T17:09:09.932Z,0.80
2022-08-07T17:12:04.552Z,1.00
2022-08-07T17:14:32.316Z,0.88
2022-08-07T17:17:04.632Z,0.88
2022-08-07T17:20:01.570Z,0.70
2022-08-07T17:22:37.777Z,0.63
2022-08-07T17:25:12.787Z,0.90
2022-08-07T17:27:57.059Z,0.80
2022-08-07T17:30:30.320Z,0.70
2022-08-07T17:34:08.791Z,0.60
2022-08-07T17:36:00.644Z,0.63
2022-08-07T17:38:36.451Z,0.70
2022-08-07T17:42:02.897Z,0.70
2022-08-07T17:44:02.993Z,0.90
2022-08-07T17:46:40.547Z,0.70
2022-08-07T17:49:14.106Z,0.70
2022-08-07T17:52:01.295Z,0.60
2022-08-07T17:54:53.241Z,0.73
2022-08-07T17:57:44.169Z,0.60
2022-08-07T18:00:32.801Z,0.60
2022-08-07T18:03:18.073Z,0.70
2022-08-07T18:06:02.837Z,0.53
2022-08-07T18:09:01.466Z,0.60
2022-08-07T18:12:06.676Z,0.70
2022-08-07T18:14:26.996Z,0.70
2022-08-07T18:16:59.052Z,0.73
2022-08-07T18:21:09.469Z,0.80
2022-08-07T18:22:32.339Z,0.70
2022-08-07T18:25:01.541Z,0.80
2022-08-07T18:27:42.398Z,0.80
2022-08-07T18:30:31.440Z,0.63
2022-08-07T18:33:33.093Z,0.90
2022-08-07T18:36:14.886Z,0.80
2022-08-07T18:40:07.888Z,0.70
2022-08-07T18:42:11.966Z,1.15
2022-08-07T18:45:40.112Z,0.52
2022-08-07T18:48:00.670Z,0.80
2022-08-07T18:50:49.123Z,0.70
2022-08-07T18:53:39.339Z,0.85
2022-08-07T18:56:14.743Z,0.80
2022-08-07T18:59:03.100Z,0.73
2022-08-07T19:02:18.018Z,0.67
2022-08-07T19:05:21.719Z,0.80
2022-08-07T19:07:57.531Z,0.80
2022-08-07T19:10:31.499Z,0.77
2022-08-07T19:13:10.306Z,0.93
2022-08-07T19:16:05.804Z,0.60
2022-08-07T19:18:44.950Z,0.60
2022-08-07T19:21:47.575Z,0.80
2022-08-07T19:24:30.824Z,0.60
2022-08-07T19:28:58.566Z,0.80
2022-08-07T19:31:05.190Z,0.70
2022-08-07T19:32:46.498Z,0.50
2022-08-07T19:35:18.909Z,0.57
2022-08-07T19:37:57.390Z,0.75
2022-08-07T19:40:30.981Z,0.70
2022-08-07T19:43:08.075Z,0.53
2022-08-07T19:46:05.588Z,1.00
2022-08-07T19:48:30.033Z,0.70
2022-08-07T19:51:20.251Z,0.60
2022-08-07T19:54:32.588Z,0.80
2022-08-07T19:57:51.292Z,0.60
2022-08-07T19:59:41.977Z,0.60
2022-08-07T20:02:18.924Z,0.60
2022-08-07T20:04:49.348Z,0.50
2022-08-07T20:07:23.834Z,0.70
2022-08-07T20:10:33.430Z,0.50
2022-08-07T20:13:22.553Z,0.50
2022-08-07T20:15:53.905Z,0.60
2022-08-07T20:18:33.449Z,0.80
2022-08-07T20:21:14.565Z,0.65
2022-08-07T20:23:54.103Z,0.67
2022-08-07T20:26:32.036Z,0.60
2022-08-07T20:29:01.210Z,0.40
2022-08-07T20:31:43.808Z,0.70
2022-08-07T20:34:14.925Z,0.60
2022-08-07T20:36:51.920Z,0.60
2022-08-07T20:40:01.348Z,0.60
2022-08-07T20:42:12.265Z,0.60
2022-08-07T20:44:45.454Z,0.50
2022-08-07T20:47:25.053Z,0.70
2022-08-07T20:49:59.634Z,0.80
2022-08-07T20:52:51.848Z,0.60
2022-08-07T20:55:26.118Z,0.65
2022-08-07T20:58:02.919Z,0.70
2022-08-07T21:00:42.112Z,0.60
2022-08-07T21:03:13.917Z,0.70
2022-08-07T21:05:54.560Z,0.68
2022-08-07T21:08:36.989Z,0.55
2022-08-07T21:11:10.876Z,0.70
2022-08-07T21:14:20.147Z,0.80
2022-08-07T21:16:56.374Z,0.60
2022-08-07T21:19:32.433Z,0.60
2022-08-07T21:22:19.025Z,0.80
2022-08-07T21:25:04.819Z,0.60
2022-08-07T21:27:53.805Z,0.60
2022-08-07T21:30:30.275Z,0.57
2022-08-07T21:33:06.820Z,0.70
2022-08-07T21:36:04.096Z,0.47
2022-08-07T21:38:30.377Z,0.50
2022-08-07T21:41:10.109Z,0.60
2022-08-07T21:43:56.562Z,0.70
2022-08-07T21:46:31.638Z,0.55
2022-08-07T21:49:14.468Z,0.60
2022-08-07T21:51:54.854Z,0.60
2022-08-07T21:54:29.652Z,0.65
2022-08-07T21:57:30.858Z,0.80
2022-08-07T22:00:06.233Z,0.80
2022-08-07T22:02:41.134Z,0.70
2022-08-07T22:05:12.244Z,0.63
2022-08-07T22:07:58.787Z,0.60
2022-08-07T22:10:33.787Z,0.63
2022-08-07T22:13:05.912Z,0.60
2022-08-07T22:16:38.583Z,0.75
2022-08-07T22:18:35.360Z,0.70
2022-08-07T22:21:15.551Z,0.70
2022-08-07T22:23:55.052Z,0.60
2022-08-07T22:26:26.760Z,0.70
2022-08-07T22:28:59.708Z,0.68
2022-08-07T22:31:56.001Z,0.57
2022-08-07T22:34:35.847Z,0.60
2022-08-07T22:37:13.560Z,0.73
2022-08-07T22:39:53.200Z,0.70
2022-08-07T22:42:25.610Z,0.88
2022-08-07T22:44:57.853Z,0.60
2022-08-07T22:47:39.648Z,0.70
2022-08-07T22:50:29.169Z,0.50
2022-08-07T22:54:08.050Z,0.50
2022-08-07T22:56:39.416Z,0.50
2022-08-07T22:59:50.175Z,0.70
2022-08-07T23:02:46.839Z,0.60
2022-08-07T23:06:08.827Z,0.60
2022-08-07T23:08:45.216Z,0.65
2022-08-07T23:11:28.507Z,0.70
2022-08-07T23:14:26.323Z,0.70
2022-08-07T23:17:08.562Z,0.73
2022-08-07T23:19:51.498Z,0.70
2022-08-07T23:22:32.608Z,0.63
2022-08-07T23:25:13.689Z,0.70
2022-08-07T23:28:21.310Z,0.80
2022-08-07T23:31:11.307Z,0.60
2022-08-07T23:34:35.023Z,0.80
2022-08-07T23:37:17.913Z,0.50
2022-08-07T23:39:42.584Z,0.70
2022-08-07T23:42:21.945Z,0.55
2022-08-07T23:45:03.551Z,0.70
2022-08-07T23:48:15.775Z,0.63
2022-08-07T23:50:49.306Z,0.60
2022-08-07T23:53:49.782Z,0.70
2022-08-07T23:56:26.677Z,0.80
2022-08-07T23:59:10.842Z,0.68
